Thunder radar more information blitzortung!


Radar de pluja more information rain snow radar


Visita la nostra xarxa de llocs de meteo:

Template documentation
and downloads

And another site



No particular awareness of the weather is required.    There are no Weather-warnings

Pagina Historial Weather Underground text

Diari Resum Juny 2, 2017 Unitats:  Mètric    Imperial   Tant
« Previous Dia
SegĂźent Dia »
Diari Setmana Mensual Anual Personalitzada
  Maxima: Minima: Media:
Temperatura: -17.8 °C -9.2 °C -3.9 °C
Punt de rosada: -17.8 °C -12.5 °C -10.2 °C
Humitat: Humidity % 38 % 51 %
Wind Speed: 0 km/h 0 km/h 11.1 km/h
RĂ fegues de vent: 0 km/h - -
Vent:- - SSW
Pression baro: 0 hPa 34361.1 hPa -
Precipitacions: 0 mm    
Historical Graphs
 
 
Dades de taula per Juny 2, 2017
Temps Temperatura Punt de rosada Pression baro Vent Wind Speed RĂ fegues de vent Humitat Rainfall Rate (Hourly)
-17.8 °C -17.8 °C 0 hPa Calm     Humidity % 0 mm
00:01 -6.9 °C -12.3 °C 34496.6 hPa Calm     53 % 0 mm
00:06 -6.9 °C -12.4 °C 34462.7 hPa Calm     53 % 0 mm
00:11 -7.1 °C -12.5 °C 34462.7 hPa Calm     53 % 0 mm
00:15 -8.3 °C -11.6 °C 34428.8 hPa Calm     68 % 0 mm
00:16 -7.1 °C -12.4 °C 34462.7 hPa Calm     54 % 0 mm
00:25 -8.3 °C -11.6 °C 34428.8 hPa NNW 2.6 km/h 2.6 km/h 68 % 0 mm
00:35 -8.4 °C -11.8 °C 34428.8 hPa Calm   5.1 km/h 68 % 0 mm
00:45 -8.6 °C -11.8 °C 34428.8 hPa Calm   5.1 km/h 69 % 0 mm
00:55 -8.8 °C -11.9 °C 34428.8 hPa Calm   5.1 km/h 69 % 0 mm
01:05 -9 °C -12.2 °C 34428.8 hPa SW 2.6 km/h 5.1 km/h 69 % 0 mm
01:15 -9.1 °C -12.3 °C 34428.8 hPa WSW 5.1 km/h 7.7 km/h 69 % 0 mm
01:25 -9.2 °C -12.3 °C 34428.8 hPa SW 7.7 km/h 7.7 km/h 70 % 0 mm
01:35 -9.2 °C -12 °C 34428.8 hPa SW 2.6 km/h 5.1 km/h 72 % 0 mm
01:45 -9.2 °C -12 °C 34428.8 hPa SW 5.1 km/h 5.1 km/h 72 % 0 mm
01:55 -9.1 °C -11.9 °C 34428.8 hPa SW 5.1 km/h 7.7 km/h 72 % 0 mm
02:05 -9.1 °C -11.8 °C 34462.7 hPa SW 2.6 km/h 5.1 km/h 72 % 0 mm
02:15 -8.8 °C -11.6 °C 34462.7 hPa Calm   2.6 km/h 72 % 0 mm
02:25 -8.5 °C -11.4 °C 34462.7 hPa Calm   2.6 km/h 71 % 0 mm
02:35 -8.1 °C -11.2 °C 34462.7 hPa South 2.6 km/h 5.1 km/h 70 % 0 mm
02:45 -7.9 °C -11.2 °C 34462.7 hPa ENE 2.6 km/h 5.1 km/h 68 % 0 mm
02:55 -7.8 °C -11.1 °C 34462.7 hPa NE 5.1 km/h 5.1 km/h 68 % 0 mm
03:05 -7.7 °C -11.2 °C 34462.7 hPa ENE 5.1 km/h 10.3 km/h 67 % 0 mm
03:15 -7.4 °C -11.1 °C 34462.7 hPa ENE 5.1 km/h 7.7 km/h 66 % 0 mm
03:25 -7.2 °C -11.1 °C 34462.7 hPa NE 5.1 km/h 5.1 km/h 64 % 0 mm
03:35 -6.8 °C -10.8 °C 34462.7 hPa NNE 2.6 km/h 5.1 km/h 63 % 0 mm
03:45 -6.9 °C -11.1 °C 34462.7 hPa WSW 2.6 km/h 7.7 km/h 62 % 0 mm
03:55 -6.4 °C -10.6 °C 34462.7 hPa SSW 2.6 km/h 5.1 km/h 62 % 0 mm
04:10 -6.2 °C -10.6 °C 34462.7 hPa South 2.6 km/h 7.7 km/h 61 % 0 mm
04:20 -6.1 °C -10.5 °C 34462.7 hPa SW 5.1 km/h 7.7 km/h 60 % 0 mm
04:30 -5.7 °C -10.4 °C 34462.7 hPa SSW 7.7 km/h 10.3 km/h 59 % 0 mm
04:40 -5.3 °C -10.1 °C 34462.7 hPa SSW 2.6 km/h 7.7 km/h 58 % 0 mm
04:50 -5.1 °C -10.2 °C 34462.7 hPa SW 7.7 km/h 7.7 km/h 56 % 0 mm
05:00 -4.9 °C -10.1 °C 34462.7 hPa SW 2.6 km/h 7.7 km/h 56 % 0 mm
05:10 -4.7 °C -9.8 °C 34462.7 hPa SW 5.1 km/h 15.6 km/h 56 % 0 mm
05:20 -4.6 °C -9.8 °C 34462.7 hPa SW 5.1 km/h 12.9 km/h 56 % 0 mm
10:21 -4.6 °C -9.8 °C 34462.7 hPa WSW 9 km/h 9.8 km/h 56 % 0 mm
10:26 -4.6 °C -9.7 °C 34462.7 hPa SSW 8.5 km/h 8.5 km/h 56 % 0 mm
10:31 -4.6 °C -9.7 °C 34462.7 hPa West 11.9 km/h 11.9 km/h 56 % 0 mm
10:36 -4.5 °C -9.7 °C 34462.7 hPa SSW 12.7 km/h 12.7 km/h 56 % 0 mm
10:41 -4.3 °C -9.7 °C 34462.7 hPa SSW 12.2 km/h 12.2 km/h 55 % 0 mm
10:46 -4.1 °C -9.6 °C 34462.7 hPa South 15 km/h 15 km/h 54 % 0 mm
10:51 -4.1 °C -9.6 °C 34462.7 hPa ESE 9 km/h 9 km/h 54 % 0 mm
10:56 -3.8 °C -9.5 °C 34462.7 hPa WSW 6 km/h 6.3 km/h 53 % 0 mm
11:01 -3.4 °C -9.1 °C 34462.7 hPa SW 9.8 km/h 9.8 km/h 53 % 0 mm
11:06 -3.4 °C -9.3 °C 34428.8 hPa South 9 km/h 9 km/h 52 % 0 mm
11:11 -3.3 °C -9.3 °C 34428.8 hPa SSW 6 km/h 6 km/h 51 % 0 mm
11:16 -3.1 °C -9.1 °C 34428.8 hPa SSW 15 km/h 15 km/h 51 % 0 mm
11:21 -3.1 °C -9.2 °C 34428.8 hPa South 11.9 km/h 11.9 km/h 51 % 0 mm
11:26 -2.9 °C -9.2 °C 34428.8 hPa WSW 11.9 km/h 11.9 km/h 50 % 0 mm
11:31 -2.9 °C -9.2 °C 34428.8 hPa South 11.9 km/h 11.9 km/h 50 % 0 mm
11:36 -2.8 °C -9.1 °C 34428.8 hPa SSE 11.9 km/h 11.9 km/h 50 % 0 mm
11:41 -2.8 °C -9.3 °C 34428.8 hPa South 11.9 km/h 11.9 km/h 49 % 0 mm
11:46 -2.5 °C -9.2 °C 34428.8 hPa South 9 km/h 9 km/h 48 % 0 mm
11:51 -2.3 °C -9.2 °C 34395 hPa SSE 11.9 km/h 11.9 km/h 47 % 0 mm
11:56 -2.2 °C -9.1 °C 34395 hPa SW 6 km/h 6 km/h 47 % 0 mm
12:01 -2.3 °C -9.1 °C 34395 hPa SW 17.9 km/h 17.9 km/h 47 % 0 mm
12:06 -2.6 °C -9.6 °C 34428.8 hPa SW 23.8 km/h 23.8 km/h 46 % 0 mm
12:11 -2.5 °C -9.6 °C 34428.8 hPa SW 16.1 km/h 16.1 km/h 46 % 0 mm
12:16 -2.6 °C -9.8 °C 34428.8 hPa South 15 km/h 15 km/h 45 % 0 mm
12:21 -2.4 °C -9.7 °C 34428.8 hPa WSW 20.9 km/h 20.9 km/h 45 % 0 mm
12:26 -2.3 °C -9.6 °C 34428.8 hPa SSW 15 km/h 15 km/h 45 % 0 mm
12:31 -2 °C -9.3 °C 34428.8 hPa WSW 15 km/h 15 km/h 45 % 0 mm
12:36 -2 °C -9.3 °C 34428.8 hPa SSW 17.9 km/h 17.9 km/h 45 % 0 mm
12:41 -2.1 °C -9.5 °C 34428.8 hPa South 12.7 km/h 12.7 km/h 44 % 0 mm
12:46 -1.8 °C -9.3 °C 34428.8 hPa SW 16.6 km/h 16.6 km/h 44 % 0 mm
12:51 -1.9 °C -9.6 °C 34395 hPa WSW 19.2 km/h 19.2 km/h 43 % 0 mm
12:56 -1.8 °C -9.5 °C 34395 hPa WSW 20.9 km/h 20.9 km/h 43 % 0 mm
13:01 -1.6 °C -9.5 °C 34395 hPa SE 9 km/h 9 km/h 42 % 0 mm
13:06 -1.3 °C -9.2 °C 34395 hPa SW 9.3 km/h 9.3 km/h 42 % 0 mm
13:07 -1.3 °C -9.2 °C 34395 hPa South 11.9 km/h 11.9 km/h 42 % 0 mm
13:12 -0.9 °C -8.8 °C 34395 hPa SSE 9 km/h 9 km/h 42 % 0 mm
13:17 -0.7 °C -8.9 °C 34395 hPa SW 9 km/h 9 km/h 41 % 0 mm
13:22 -1.1 °C -9.1 °C 34395 hPa South 15 km/h 15 km/h 42 % 0 mm
13:27 -1.5 °C -9.2 °C 34395 hPa ESE 9.8 km/h 9.8 km/h 43 % 0 mm
13:32 -1.7 °C -9.2 °C 34395 hPa East 15 km/h 15 km/h 44 % 0 mm
13:37 -1.9 °C -9.2 °C 34395 hPa ESE 17.9 km/h 17.9 km/h 45 % 0 mm
13:42 -2.1 °C -9.3 °C 34395 hPa SE 23.8 km/h 23.8 km/h 45 % 0 mm
13:47 -2.3 °C -9.6 °C 34395 hPa SE 20.9 km/h 20.9 km/h 45 % 0 mm
13:52 -2.3 °C -9.3 °C 34395 hPa NE 15 km/h 15 km/h 46 % 0 mm
13:57 -2.3 °C -9.3 °C 34395 hPa WSW 20.9 km/h 20.9 km/h 46 % 0 mm
14:02 -1.9 °C -8.8 °C 34395 hPa SSE 9 km/h 9 km/h 47 % 0 mm
14:07 -2 °C -9.1 °C 34395 hPa East 11.9 km/h 11.9 km/h 46 % 0 mm
14:12 -1.9 °C -9 °C 34395 hPa ESE 15 km/h 15 km/h 46 % 0 mm
14:17 -1.9 °C -9 °C 34395 hPa SSE 15 km/h 15 km/h 46 % 0 mm
14:22 -1.4 °C -8.7 °C 34395 hPa South 17.9 km/h 17.9 km/h 45 % 0 mm
14:27 -1.1 °C -8.7 °C 34395 hPa SE 6 km/h 6 km/h 44 % 0 mm
14:32 -0.7 °C -8.3 °C 34395 hPa South 9 km/h 9 km/h 44 % 0 mm
14:37 -0.7 °C -8.3 °C 34395 hPa SSW 15.3 km/h 15.3 km/h 44 % 0 mm
14:42 -0.8 °C -8.6 °C 34395 hPa SW 15 km/h 15 km/h 43 % 0 mm
14:47 -0.9 °C -8.7 °C 34395 hPa South 15 km/h 15 km/h 43 % 0 mm
14:52 -0.8 °C -8.6 °C 34361.1 hPa West 15 km/h 15 km/h 43 % 0 mm
14:57 -0.8 °C -8.8 °C 34361.1 hPa SW 17.9 km/h 17.9 km/h 42 % 0 mm
15:02 -0.9 °C -9.1 °C 34361.1 hPa SW 15.6 km/h 15.6 km/h 41 % 0 mm
15:07 -0.9 °C -9.1 °C 34361.1 hPa WSW 17.9 km/h 17.9 km/h 41 % 0 mm
15:12 -0.6 °C -9 °C 34361.1 hPa WNW 11.9 km/h 11.9 km/h 40 % 0 mm
15:17 -0.5 °C -8.9 °C 34361.1 hPa SSW 9 km/h 9 km/h 40 % 0 mm
15:22 -0.9 °C -9.3 °C 34361.1 hPa South 20.9 km/h 20.9 km/h 40 % 0 mm
15:27 -0.6 °C -9.2 °C 34361.1 hPa SSW 9.3 km/h 9.3 km/h 39 % 0 mm
15:32 -0.9 °C -9.5 °C 34361.1 hPa West 23.8 km/h 23.8 km/h 39 % 0 mm
15:37 -1 °C -9.6 °C 34361.1 hPa WSW 20.9 km/h 20.9 km/h 39 % 0 mm
15:42 -0.8 °C -9.4 °C 34361.1 hPa SSW 15 km/h 15 km/h 39 % 0 mm
15:47 -0.9 °C -9.6 °C 34361.1 hPa SW 23.8 km/h 23.8 km/h 39 % 0 mm
15:52 -1 °C -9.8 °C 34361.1 hPa SW 23.8 km/h 23.8 km/h 38 % 0 mm
15:57 -1.1 °C -9.7 °C 34361.1 hPa West 17.9 km/h 17.9 km/h 39 % 0 mm
16:02 -0.9 °C -9.7 °C 34361.1 hPa South 9 km/h 9 km/h 38 % 0 mm
16:07 -0.8 °C -9.7 °C 34361.1 hPa SW 17.9 km/h 17.9 km/h 38 % 0 mm
16:12 -1 °C -9.8 °C 34361.1 hPa SSW 20.9 km/h 20.9 km/h 38 % 0 mm
16:17 -1.3 °C -10.1 °C 34361.1 hPa SW 20.9 km/h 20.9 km/h 38 % 0 mm
16:22 -1.2 °C -9.8 °C 34361.1 hPa West 15 km/h 15 km/h 39 % 0 mm
16:27 -1.5 °C -10.1 °C 34361.1 hPa South 17.9 km/h 17.9 km/h 39 % 0 mm
16:28 -1.5 °C -10.1 °C 34361.1 hPa SW 17.9 km/h 17.9 km/h 39 % 0 mm
16:33 -1.5 °C -10.1 °C 34361.1 hPa West 19.6 km/h 19.6 km/h 39 % 0 mm
16:38 -1.7 °C -10.2 °C 34361.1 hPa South 20.9 km/h 20.9 km/h 39 % 0 mm
16:43 -1.8 °C -10.1 °C 34361.1 hPa South 23.8 km/h 23.8 km/h 40 % 0 mm
16:48 -1.7 °C -10.2 °C 34361.1 hPa South 23.8 km/h 23.8 km/h 39 % 0 mm
16:53 -1.6 °C -10.2 °C 34361.1 hPa SSW 16.6 km/h 16.6 km/h 39 % 0 mm
16:58 -1.7 °C -10.1 °C 34361.1 hPa SW 28.2 km/h 28.2 km/h 40 % 0 mm
17:03 -1.8 °C -10.1 °C 34361.1 hPa WNW 23.8 km/h 23.8 km/h 40 % 0 mm
17:08 -1.8 °C -10.1 °C 34361.1 hPa SW 20.9 km/h 20.9 km/h 40 % 0 mm
17:13 -2 °C -10.3 °C 34361.1 hPa WSW 20.9 km/h 20.9 km/h 40 % 0 mm
17:18 -2.2 °C -10.4 °C 34361.1 hPa SSW 26.9 km/h 26.9 km/h 40 % 0 mm
17:23 -2.3 °C -10.4 °C 34361.1 hPa WSW 26.9 km/h 26.9 km/h 41 % 0 mm
17:28 -2.2 °C -10 °C 34361.1 hPa SW 11.9 km/h 11.9 km/h 42 % 0 mm
17:33 -2 °C -9.9 °C 34361.1 hPa South 16.6 km/h 16.6 km/h 42 % 0 mm
17:34 -2 °C -9.9 °C 34361.1 hPa South 17.9 km/h 17.9 km/h 42 % 0 mm
17:39 -2.3 °C -10.2 °C 34361.1 hPa SSW 15 km/h 15 km/h 42 % 0 mm
17:44 -2.3 °C -10.4 °C 34361.1 hPa SW 11.9 km/h 11.9 km/h 41 % 0 mm
17:49 -2.3 °C -10.3 °C 34361.1 hPa SSW 20.9 km/h 20.9 km/h 41 % 0 mm
17:54 -2.3 °C -10.4 °C 34361.1 hPa WSW 15.6 km/h 15.6 km/h 41 % 0 mm
17:55 -2.4 °C -10.4 °C 34361.1 hPa SW 18.3 km/h 18.3 km/h 41 % 0 mm
18:00 -2.5 °C -10.5 °C 34361.1 hPa South 20.9 km/h 20.9 km/h 41 % 0 mm
18:05 -2.6 °C -10.4 °C 34361.1 hPa SSW 17.9 km/h 17.9 km/h 42 % 0 mm
18:06 -2.6 °C -10.4 °C 34361.1 hPa West 15 km/h 15 km/h 42 % 0 mm
18:11 -2.4 °C -10.2 °C 34361.1 hPa SSW 23.8 km/h 23.8 km/h 42 % 0 mm
18:16 -2.4 °C -10.4 °C 34361.1 hPa SW 15 km/h 15 km/h 41 % 0 mm
18:21 -2.6 °C -10.4 °C 34361.1 hPa SW 11.9 km/h 11.9 km/h 42 % 0 mm
18:26 -2.3 °C -10.2 °C 34361.1 hPa SSE 16.6 km/h 16.6 km/h 42 % 0 mm
18:31 -2.4 °C -10.2 °C 34361.1 hPa SW 15.3 km/h 15.3 km/h 42 % 0 mm
18:36 -2.3 °C -10.2 °C 34361.1 hPa SW 12.7 km/h 12.7 km/h 42 % 0 mm
18:41 -2.4 °C -10.4 °C 34361.1 hPa SSE 15 km/h 15 km/h 41 % 0 mm
18:46 -2.4 °C -10.4 °C 34361.1 hPa SW 9 km/h 9 km/h 41 % 0 mm
18:51 -2.5 °C -10.5 °C 34361.1 hPa WSW 17.9 km/h 17.9 km/h 41 % 0 mm
18:56 -2.8 °C -10.8 °C 34361.1 hPa West 9.3 km/h 9.3 km/h 41 % 0 mm
19:01 -2.9 °C -10.7 °C 34361.1 hPa SW 15 km/h 15 km/h 42 % 0 mm
19:06 -3.1 °C -10.9 °C 34395 hPa SW 19.6 km/h 19.6 km/h 42 % 0 mm
19:11 -3.3 °C -11 °C 34395 hPa WSW 15 km/h 15 km/h 42 % 0 mm
19:16 -3.5 °C -11.2 °C 34395 hPa SW 15 km/h 15 km/h 42 % 0 mm
19:21 -3.6 °C -11.1 °C 34361.1 hPa WSW 6 km/h 6 km/h 43 % 0 mm
19:26 -3.7 °C -11.2 °C 34361.1 hPa SW 15 km/h 15 km/h 43 % 0 mm
19:31 -3.7 °C -10.9 °C 34361.1 hPa SW 14 km/h 14 km/h 44 % 0 mm
19:36 -3.8 °C -11.1 °C 34395 hPa WSW 9 km/h 9 km/h 44 % 0 mm
19:41 -4 °C -11.1 °C 34395 hPa SW 9 km/h 9 km/h 45 % 0 mm
19:46 -4.1 °C -11 °C 34395 hPa SW 9 km/h 9 km/h 46 % 0 mm
19:51 -4.2 °C -11.1 °C 34395 hPa SSW 3.1 km/h   46 % 0 mm
19:56 -4.3 °C -11.2 °C 34395 hPa ESE 3.1 km/h 3.1 km/h 46 % 0 mm
20:01 -4.2 °C -11.1 °C 34395 hPa SW 3.1 km/h   46 % 0 mm
20:06 -4.3 °C -11.2 °C 34361.1 hPa SSW 6 km/h 6 km/h 46 % 0 mm
20:11 -4.3 °C -10.9 °C 34361.1 hPa SW 4.2 km/h 4.2 km/h 47 % 0 mm
20:13 -4.3 °C -11 °C 34361.1 hPa WSW 6 km/h 6 km/h 47 % 0 mm
20:18 -4.3 °C -10.9 °C 34361.1 hPa Calm     47 % 0 mm
20:23 -4.5 °C -11.2 °C 34395 hPa ENE 6 km/h 6 km/h 47 % 0 mm
20:28 -4.6 °C -10.7 °C 34395 hPa WSW 17.9 km/h 17.9 km/h 50 % 0 mm
20:33 -4.7 °C -10.6 °C 34395 hPa NE 6 km/h 6 km/h 51 % 0 mm
20:38 -4.7 °C -10.2 °C 34395 hPa ESE 15 km/h 15 km/h 54 % 0 mm
20:43 -4.8 °C -9.9 °C 34395 hPa ESE 15 km/h 15 km/h 56 % 0 mm
20:48 -4.9 °C -10.1 °C 34395 hPa NNE 11.9 km/h 11.9 km/h 56 % 0 mm
20:53 -5 °C -10.2 °C 34395 hPa ESE 16.6 km/h 16.6 km/h 56 % 0 mm
20:58 -5.1 °C -10.1 °C 34395 hPa NNE 15 km/h 15 km/h 57 % 0 mm
21:03 -5.2 °C -10 °C 34395 hPa East 11.9 km/h 11.9 km/h 58 % 0 mm
21:06 -5.2 °C -10 °C 34395 hPa ENE 11.9 km/h 11.9 km/h 58 % 0 mm
21:11 -5.2 °C -9.9 °C 34395 hPa ENE 11.9 km/h 11.9 km/h 59 % 0 mm
21:16 -5.3 °C -9.9 °C 34395 hPa ESE 6 km/h 6 km/h 59 % 0 mm
21:21 -5.3 °C -9.8 °C 34395 hPa ENE 9 km/h 9 km/h 60 % 0 mm
21:26 -5.3 °C -9.8 °C 34395 hPa SE 6 km/h 6 km/h 60 % 0 mm
21:31 -5.4 °C -9.9 °C 34395 hPa SSE 11.9 km/h 11.9 km/h 60 % 0 mm
21:36 -5.4 °C -9.9 °C 34395 hPa ENE 7.6 km/h 7.6 km/h 60 % 0 mm
21:41 -5.5 °C -10.1 °C 34395 hPa ESE 6 km/h 6 km/h 60 % 0 mm
21:46 -5.6 °C -10.1 °C 34395 hPa SSW 3.7 km/h 3.7 km/h 60 % 0 mm
21:47 -5.6 °C -10.1 °C 34395 hPa SSW 3.1 km/h   60 % 0 mm
21:52 -5.6 °C -9.9 °C 34395 hPa SW 2.3 km/h   61 % 0 mm
21:57 -5.7 °C -10.1 °C 34395 hPa WSW 6.8 km/h 6.8 km/h 61 % 0 mm
22:02 -5.7 °C -10.1 °C 34395 hPa WSW 6 km/h 6 km/h 61 % 0 mm
22:07 -5.7 °C -9.9 °C 34395 hPa SW 6 km/h 6 km/h 62 % 0 mm
22:12 -5.8 °C -10.1 °C 34395 hPa SSW 6 km/h 6 km/h 61 % 0 mm
22:17 -5.9 °C -10.2 °C 34395 hPa WSW 15 km/h 15 km/h 61 % 0 mm
22:22 -5.9 °C -10.2 °C 34428.8 hPa West 9 km/h 9 km/h 62 % 0 mm
22:27 -5.9 °C -10.2 °C 34428.8 hPa WSW 9 km/h 9 km/h 61 % 0 mm
22:32 -5.9 °C -10.2 °C 34428.8 hPa SW 6.8 km/h 6.8 km/h 61 % 0 mm
22:37 -5.9 °C -10.4 °C 34428.8 hPa WSW 9 km/h 9 km/h 60 % 0 mm
22:42 -5.9 °C -10.4 °C 34428.8 hPa SW 9.8 km/h 9.8 km/h 60 % 0 mm
22:47 -6 °C -10.5 °C 34428.8 hPa West 9 km/h 9 km/h 60 % 0 mm
22:52 -6 °C -10.5 °C 34428.8 hPa SSW 6 km/h 6 km/h 60 % 0 mm
22:57 -6 °C -10.5 °C 34428.8 hPa WSW 6.3 km/h 6.3 km/h 60 % 0 mm
23:02 -6 °C -10.5 °C 34428.8 hPa WSW 7.6 km/h 7.6 km/h 60 % 0 mm
23:07 -6.1 °C -10.4 °C 34395 hPa SW 3.7 km/h 3.7 km/h 61 % 0 mm
23:12 -6.1 °C -10.4 °C 34395 hPa Calm     61 % 0 mm
23:17 -6.1 °C -10.3 °C 34395 hPa East 9 km/h 9 km/h 62 % 0 mm
23:22 -6.1 °C -10.4 °C 34395 hPa ENE 6 km/h 6 km/h 61 % 0 mm
23:27 -6.1 °C -10.3 °C 34395 hPa ENE 3.1 km/h   62 % 0 mm
23:32 -6.1 °C -10.2 °C 34395 hPa ENE 3.1 km/h 3.1 km/h 62 % 0 mm
23:37 -6.1 °C -10.2 °C 34395 hPa Calm     62 % 0 mm
23:42 -6.1 °C -10.3 °C 34395 hPa Calm     62 % 0 mm
23:47 -6.1 °C -10.3 °C 34395 hPa SW 6 km/h 6 km/h 62 % 0 mm
23:52 -6.2 °C -10.4 °C 34395 hPa WSW 6 km/h 6 km/h 62 % 0 mm
23:57 -6.2 °C -10.4 °C 34395 hPa WSW 6 km/h 6 km/h 62 % 0 mm
Meteo Sesrovires
Elogis d' Weather Underground - 4 mb

Guio original per  Jim McMurry - jmcmurry@mwt.net Adaptat per a la plantilla per  Wim van der Kuil - Leuven-Template.eu

Trobareu la nostra informacio del temps tambe a:

Weather Underground

AWEKAS